sensor_id;sensor_type;location;lat;lon;timestamp;P1;durP1;ratioP1;P2;durP2;ratioP2
78799;SDS011;68148;55.328;86.106;2023-04-01T00:01:00;12.02;;;6.10;;
78799;SDS011;68148;55.328;86.106;2023-04-01T00:03:26;13.70;;;7.18;;
78799;SDS011;68148;55.328;86.106;2023-04-01T00:05:52;22.95;;;11.82;;
78799;SDS011;68148;55.328;86.106;2023-04-01T00:08:20;33.97;;;10.70;;
78799;SDS011;68148;55.328;86.106;2023-04-01T00:10:46;18.58;;;13.30;;
78799;SDS011;68148;55.328;86.106;2023-04-01T00:13:12;58.45;;;17.33;;
78799;SDS011;68148;55.328;86.106;2023-04-01T00:15:38;34.40;;;15.93;;
78799;SDS011;68148;55.328;86.106;2023-04-01T00:18:04;43.45;;;15.43;;
78799;SDS011;68148;55.328;86.106;2023-04-01T00:20:30;40.42;;;10.35;;
78799;SDS011;68148;55.328;86.106;2023-04-01T00:22:56;48.38;;;15.70;;
78799;SDS011;68148;55.328;86.106;2023-04-01T00:25:22;50.35;;;23.75;;
78799;SDS011;68148;55.328;86.106;2023-04-01T00:27:48;18.50;;;8.95;;
78799;SDS011;68148;55.328;86.106;2023-04-01T00:30:14;36.15;;;11.75;;
78799;SDS011;68148;55.328;86.106;2023-04-01T00:32:40;15.85;;;4.75;;
78799;SDS011;68148;55.328;86.106;2023-04-01T00:35:06;12.90;;;3.88;;
78799;SDS011;68148;55.328;86.106;2023-04-01T00:37:34;18.00;;;5.85;;
78799;SDS011;68148;55.328;86.106;2023-04-01T00:40:00;7.22;;;4.10;;
78799;SDS011;68148;55.328;86.106;2023-04-01T00:42:27;3.88;;;1.92;;
78799;SDS011;68148;55.328;86.106;2023-04-01T00:44:53;23.00;;;4.22;;
78799;SDS011;68148;55.328;86.106;2023-04-01T00:47:20;7.20;;;3.08;;
78799;SDS011;68148;55.328;86.106;2023-04-01T00:49:50;6.82;;;3.75;;
78799;SDS011;68148;55.328;86.106;2023-04-01T00:52:18;16.75;;;4.32;;
78799;SDS011;68148;55.328;86.106;2023-04-01T00:54:47;6.80;;;2.45;;
78799;SDS011;68148;55.328;86.106;2023-04-01T00:57:32;13.90;;;4.28;;
78799;SDS011;68148;55.328;86.106;2023-04-01T01:00:03;6.30;;;2.17;;
78799;SDS011;68148;55.328;86.106;2023-04-01T01:02:31;13.88;;;4.70;;
78799;SDS011;68148;55.328;86.106;2023-04-01T01:04:59;12.13;;;2.97;;
78799;SDS011;68148;55.328;86.106;2023-04-01T01:13:10;0.25;;;0.20;;
78799;SDS011;68148;55.328;86.106;2023-04-01T01:16:04;0.28;;;0.22;;
78799;SDS011;68148;55.328;86.106;2023-04-01T01:37:38;15.68;;;4.00;;
78799;SDS011;68148;55.328;86.106;2023-04-01T01:40:06;6.97;;;3.20;;
78799;SDS011;68148;55.328;86.106;2023-04-01T01:42:35;3.70;;;0.85;;
78799;SDS011;68148;55.328;86.106;2023-04-01T01:45:05;5.30;;;1.35;;
78799;SDS011;68148;55.328;86.106;2023-04-01T01:47:33;6.95;;;2.10;;
78799;SDS011;68148;55.328;86.106;2023-04-01T01:50:01;2.75;;;1.70;;
78799;SDS011;68148;55.328;86.106;2023-04-01T01:52:28;0.40;;;0.38;;
78799;SDS011;68148;55.328;86.106;2023-04-01T01:54:56;5.57;;;2.15;;
78799;SDS011;68148;55.328;86.106;2023-04-01T01:57:24;1.77;;;1.20;;
78799;SDS011;68148;55.328;86.106;2023-04-01T01:59:54;3.08;;;1.38;;
78799;SDS011;68148;55.328;86.106;2023-04-01T02:02:25;8.60;;;1.83;;
78799;SDS011;68148;55.328;86.106;2023-04-01T02:04:51;4.53;;;0.55;;
78799;SDS011;68148;55.328;86.106;2023-04-01T02:07:23;1.15;;;0.77;;
78799;SDS011;68148;55.328;86.106;2023-04-01T02:09:53;1.10;;;0.38;;
78799;SDS011;68148;55.328;86.106;2023-04-01T02:12:19;1.02;;;0.50;;
78799;SDS011;68148;55.328;86.106;2023-04-01T02:15:03;1.08;;;0.57;;
78799;SDS011;68148;55.328;86.106;2023-04-01T02:17:34;3.58;;;0.63;;
78799;SDS011;68148;55.328;86.106;2023-04-01T02:20:18;0.32;;;0.13;;
78799;SDS011;68148;55.328;86.106;2023-04-01T02:22:51;4.40;;;2.08;;
78799;SDS011;68148;55.328;86.106;2023-04-01T02:25:33;3.03;;;0.47;;
78799;SDS011;68148;55.328;86.106;2023-04-01T02:28:01;0.60;;;0.50;;
78799;SDS011;68148;55.328;86.106;2023-04-01T02:30:31;3.13;;;0.82;;
78799;SDS011;68148;55.328;86.106;2023-04-01T02:32:59;5.20;;;1.88;;
78799;SDS011;68148;55.328;86.106;2023-04-01T02:35:26;7.15;;;1.00;;
78799;SDS011;68148;55.328;86.106;2023-04-01T02:37:53;2.22;;;0.95;;
78799;SDS011;68148;55.328;86.106;2023-04-01T02:40:20;0.32;;;0.32;;
78799;SDS011;68148;55.328;86.106;2023-04-01T02:42:45;2.28;;;0.98;;
78799;SDS011;68148;55.328;86.106;2023-04-01T02:45:12;1.55;;;0.85;;
78799;SDS011;68148;55.328;86.106;2023-04-01T02:47:38;2.03;;;0.80;;
78799;SDS011;68148;55.328;86.106;2023-04-01T02:50:04;1.20;;;0.30;;
78799;SDS011;68148;55.328;86.106;2023-04-01T02:52:31;1.10;;;0.75;;
78799;SDS011;68148;55.328;86.106;2023-04-01T02:54:58;2.92;;;0.82;;
78799;SDS011;68148;55.328;86.106;2023-04-01T02:57:24;0.20;;;0.20;;
78799;SDS011;68148;55.328;86.106;2023-04-01T02:59:51;0.00;;;0.00;;
78799;SDS011;68148;55.328;86.106;2023-04-01T03:02:17;1.85;;;0.57;;
78799;SDS011;68148;55.328;86.106;2023-04-01T03:04:43;4.82;;;0.63;;
78799;SDS011;68148;55.328;86.106;2023-04-01T03:07:09;2.85;;;1.58;;
78799;SDS011;68148;55.328;86.106;2023-04-01T03:09:38;7.25;;;0.98;;
78799;SDS011;68148;55.328;86.106;2023-04-01T03:12:08;3.85;;;1.23;;
78799;SDS011;68148;55.328;86.106;2023-04-01T03:14:34;0.43;;;0.40;;
78799;SDS011;68148;55.328;86.106;2023-04-01T03:17:00;1.25;;;0.20;;
78799;SDS011;68148;55.328;86.106;2023-04-01T03:19:25;4.18;;;1.13;;
78799;SDS011;68148;55.328;86.106;2023-04-01T03:21:51;1.30;;;0.28;;
78799;SDS011;68148;55.328;86.106;2023-04-01T03:24:19;1.73;;;0.38;;
78799;SDS011;68148;55.328;86.106;2023-04-01T03:26:45;2.33;;;1.25;;
78799;SDS011;68148;55.328;86.106;2023-04-01T03:29:11;2.45;;;0.75;;
78799;SDS011;68148;55.328;86.106;2023-04-01T03:31:37;2.97;;;0.60;;
78799;SDS011;68148;55.328;86.106;2023-04-01T03:34:03;1.35;;;0.47;;
78799;SDS011;68148;55.328;86.106;2023-04-01T03:36:29;0.52;;;0.40;;
78799;SDS011;68148;55.328;86.106;2023-04-01T03:38:55;2.83;;;0.93;;
78799;SDS011;68148;55.328;86.106;2023-04-01T03:41:21;0.70;;;0.50;;
78799;SDS011;68148;55.328;86.106;2023-04-01T03:43:47;2.03;;;0.75;;
78799;SDS011;68148;55.328;86.106;2023-04-01T03:46:17;0.10;;;0.10;;
78799;SDS011;68148;55.328;86.106;2023-04-01T03:48:43;0.95;;;0.52;;
78799;SDS011;68148;55.328;86.106;2023-04-01T03:51:09;1.00;;;0.38;;
78799;SDS011;68148;55.328;86.106;2023-04-01T03:53:35;4.43;;;1.65;;
78799;SDS011;68148;55.328;86.106;2023-04-01T03:56:07;1.45;;;0.55;;
78799;SDS011;68148;55.328;86.106;2023-04-01T03:58:34;6.43;;;2.00;;
78799;SDS011;68148;55.328;86.106;2023-04-01T04:01:00;0.68;;;0.45;;
78799;SDS011;68148;55.328;86.106;2023-04-01T04:03:26;6.80;;;0.60;;
78799;SDS011;68148;55.328;86.106;2023-04-01T04:05:52;2.03;;;1.58;;
78799;SDS011;68148;55.328;86.106;2023-04-01T04:08:18;0.43;;;0.20;;
78799;SDS011;68148;55.328;86.106;2023-04-01T04:10:44;1.38;;;0.15;;
78799;SDS011;68148;55.328;86.106;2023-04-01T04:13:10;1.50;;;0.50;;
78799;SDS011;68148;55.328;86.106;2023-04-01T04:15:36;3.25;;;1.02;;
78799;SDS011;68148;55.328;86.106;2023-04-01T04:18:02;0.20;;;0.20;;
78799;SDS011;68148;55.328;86.106;2023-04-01T04:20:28;0.00;;;0.00;;
78799;SDS011;68148;55.328;86.106;2023-04-01T04:22:54;3.40;;;0.98;;
78799;SDS011;68148;55.328;86.106;2023-04-01T04:25:19;0.65;;;0.38;;
78799;SDS011;68148;55.328;86.106;2023-04-01T04:27:45;0.20;;;0.00;;
78799;SDS011;68148;55.328;86.106;2023-04-01T04:30:12;5.40;;;1.90;;
78799;SDS011;68148;55.328;86.106;2023-04-01T04:32:40;1.05;;;0.57;;
78799;SDS011;68148;55.328;86.106;2023-04-01T04:35:05;0.63;;;0.30;;
78799;SDS011;68148;55.328;86.106;2023-04-01T04:37:31;3.92;;;1.40;;
78799;SDS011;68148;55.328;86.106;2023-04-01T04:39:57;1.55;;;1.27;;
78799;SDS011;68148;55.328;86.106;2023-04-01T04:42:23;2.38;;;0.57;;
78799;SDS011;68148;55.328;86.106;2023-04-01T04:44:49;2.17;;;1.02;;
78799;SDS011;68148;55.328;86.106;2023-04-01T04:47:15;0.28;;;0.28;;
78799;SDS011;68148;55.328;86.106;2023-04-01T04:49:41;7.15;;;1.63;;
78799;SDS011;68148;55.328;86.106;2023-04-01T04:52:07;4.60;;;1.83;;
78799;SDS011;68148;55.328;86.106;2023-04-01T04:54:33;0.75;;;0.28;;
78799;SDS011;68148;55.328;86.106;2023-04-01T04:56:58;10.55;;;2.45;;
78799;SDS011;68148;55.328;86.106;2023-04-01T04:59:24;1.00;;;0.70;;
78799;SDS011;68148;55.328;86.106;2023-04-01T05:01:50;9.98;;;1.33;;
78799;SDS011;68148;55.328;86.106;2023-04-01T05:04:16;5.47;;;1.60;;
78799;SDS011;68148;55.328;86.106;2023-04-01T05:06:42;6.80;;;0.70;;
78799;SDS011;68148;55.328;86.106;2023-04-01T05:09:09;10.27;;;1.65;;
78799;SDS011;68148;55.328;86.106;2023-04-01T05:11:34;0.43;;;0.20;;
78799;SDS011;68148;55.328;86.106;2023-04-01T05:14:00;9.05;;;2.03;;
78799;SDS011;68148;55.328;86.106;2023-04-01T05:16:26;5.90;;;1.65;;
78799;SDS011;68148;55.328;86.106;2023-04-01T05:18:52;1.23;;;0.63;;
78799;SDS011;68148;55.328;86.106;2023-04-01T05:21:18;2.00;;;1.00;;
78799;SDS011;68148;55.328;86.106;2023-04-01T05:23:44;6.25;;;1.73;;
78799;SDS011;68148;55.328;86.106;2023-04-01T05:26:10;2.05;;;0.73;;
78799;SDS011;68148;55.328;86.106;2023-04-01T05:31:05;4.32;;;2.30;;
78799;SDS011;68148;55.328;86.106;2023-04-01T05:33:31;1.52;;;0.68;;
78799;SDS011;68148;55.328;86.106;2023-04-01T05:36:06;1.88;;;1.05;;
78799;SDS011;68148;55.328;86.106;2023-04-01T05:38:39;3.85;;;1.33;;
78799;SDS011;68148;55.328;86.106;2023-04-01T05:41:05;4.35;;;1.00;;
78799;SDS011;68148;55.328;86.106;2023-04-01T05:43:31;6.45;;;1.83;;
78799;SDS011;68148;55.328;86.106;2023-04-01T05:45:57;1.35;;;1.27;;
78799;SDS011;68148;55.328;86.106;2023-04-01T05:48:23;8.68;;;1.75;;
78799;SDS011;68148;55.328;86.106;2023-04-01T05:50:49;1.50;;;0.65;;
78799;SDS011;68148;55.328;86.106;2023-04-01T05:53:15;7.75;;;1.35;;
78799;SDS011;68148;55.328;86.106;2023-04-01T05:55:41;3.83;;;1.95;;
78799;SDS011;68148;55.328;86.106;2023-04-01T05:58:07;2.72;;;0.60;;
78799;SDS011;68148;55.328;86.106;2023-04-01T06:00:33;3.25;;;1.10;;
78799;SDS011;68148;55.328;86.106;2023-04-01T06:02:59;6.50;;;2.10;;
78799;SDS011;68148;55.328;86.106;2023-04-01T06:05:28;4.43;;;1.27;;
78799;SDS011;68148;55.328;86.106;2023-04-01T06:07:59;3.13;;;0.95;;
78799;SDS011;68148;55.328;86.106;2023-04-01T06:13:29;6.07;;;1.92;;
78799;SDS011;68148;55.328;86.106;2023-04-01T06:19:23;5.03;;;1.98;;
78799;SDS011;68148;55.328;86.106;2023-04-01T06:29:47;0.73;;;0.32;;
78799;SDS011;68148;55.328;86.106;2023-04-01T06:43:38;6.50;;;2.22;;
78799;SDS011;68148;55.328;86.106;2023-04-01T06:52:43;12.27;;;4.30;;
78799;SDS011;68148;55.328;86.106;2023-04-01T06:58:00;7.70;;;1.48;;
78799;SDS011;68148;55.328;86.106;2023-04-01T07:00:32;10.05;;;2.35;;
78799;SDS011;68148;55.328;86.106;2023-04-01T07:05:40;5.78;;;1.88;;
78799;SDS011;68148;55.328;86.106;2023-04-01T07:08:16;1.80;;;0.80;;
78799;SDS011;68148;55.328;86.106;2023-04-01T07:10:47;6.25;;;1.23;;
78799;SDS011;68148;55.328;86.106;2023-04-01T07:13:21;4.13;;;1.00;;
78799;SDS011;68148;55.328;86.106;2023-04-01T07:15:54;4.85;;;1.20;;
78799;SDS011;68148;55.328;86.106;2023-04-01T07:18:52;9.88;;;1.50;;
78799;SDS011;68148;55.328;86.106;2023-04-01T07:21:30;0.47;;;0.47;;
78799;SDS011;68148;55.328;86.106;2023-04-01T07:24:09;19.77;;;1.42;;
78799;SDS011;68148;55.328;86.106;2023-04-01T07:26:40;35.13;;;2.58;;
78799;SDS011;68148;55.328;86.106;2023-04-01T07:29:11;10.00;;;2.63;;
78799;SDS011;68148;55.328;86.106;2023-04-01T07:34:26;4.43;;;1.95;;
78799;SDS011;68148;55.328;86.106;2023-04-01T07:36:58;8.00;;;0.98;;
78799;SDS011;68148;55.328;86.106;2023-04-01T07:39:36;0.25;;;0.17;;
78799;SDS011;68148;55.328;86.106;2023-04-01T07:56:31;3.38;;;2.22;;
78799;SDS011;68148;55.328;86.106;2023-04-01T07:59:19;4.60;;;2.08;;
78799;SDS011;68148;55.328;86.106;2023-04-01T08:05:29;10.25;;;1.17;;
78799;SDS011;68148;55.328;86.106;2023-04-01T08:07:53;4.30;;;1.27;;
78799;SDS011;68148;55.328;86.106;2023-04-01T08:15:52;25.42;;;4.82;;
78799;SDS011;68148;55.328;86.106;2023-04-01T08:18:39;13.82;;;3.08;;
78799;SDS011;68148;55.328;86.106;2023-04-01T08:23:47;6.53;;;1.67;;
78799;SDS011;68148;55.328;86.106;2023-04-01T08:26:30;9.52;;;1.63;;
78799;SDS011;68148;55.328;86.106;2023-04-01T08:34:08;5.10;;;1.50;;
78799;SDS011;68148;55.328;86.106;2023-04-01T08:39:15;13.10;;;1.85;;
78799;SDS011;68148;55.328;86.106;2023-04-01T08:41:51;2.15;;;1.10;;
78799;SDS011;68148;55.328;86.106;2023-04-01T08:51:04;16.58;;;3.13;;
78799;SDS011;68148;55.328;86.106;2023-04-01T08:59:57;14.07;;;1.75;;
78799;SDS011;68148;55.328;86.106;2023-04-01T09:08:17;2.65;;;1.13;;
78799;SDS011;68148;55.328;86.106;2023-04-01T09:11:04;4.68;;;1.17;;
78799;SDS011;68148;55.328;86.106;2023-04-01T09:13:41;2.88;;;1.23;;
78799;SDS011;68148;55.328;86.106;2023-04-01T09:22:13;1.98;;;0.90;;
78799;SDS011;68148;55.328;86.106;2023-04-01T09:38:04;4.22;;;1.02;;
78799;SDS011;68148;55.328;86.106;2023-04-01T10:02:33;23.30;;;2.15;;
78799;SDS011;68148;55.328;86.106;2023-04-01T10:33:50;9.98;;;2.70;;
78799;SDS011;68148;55.328;86.106;2023-04-01T10:39:33;0.77;;;0.22;;
78799;SDS011;68148;55.328;86.106;2023-04-01T10:48:45;11.75;;;3.13;;
78799;SDS011;68148;55.328;86.106;2023-04-01T10:54:29;9.45;;;2.90;;
78799;SDS011;68148;55.328;86.106;2023-04-01T11:24:31;42.08;;;5.90;;
78799;SDS011;68148;55.328;86.106;2023-04-01T11:30:17;12.30;;;3.00;;
78799;SDS011;68148;55.328;86.106;2023-04-01T11:32:50;2.47;;;1.63;;
78799;SDS011;68148;55.328;86.106;2023-04-01T11:49:33;10.43;;;3.33;;
78799;SDS011;68148;55.328;86.106;2023-04-01T11:55:24;3.85;;;1.67;;
78799;SDS011;68148;55.328;86.106;2023-04-01T12:00:57;5.70;;;1.92;;
78799;SDS011;68148;55.328;86.106;2023-04-01T12:09:25;9.90;;;3.72;;
78799;SDS011;68148;55.328;86.106;2023-04-01T12:12:27;12.55;;;3.80;;
78799;SDS011;68148;55.328;86.106;2023-04-01T12:15:04;5.20;;;1.63;;
78799;SDS011;68148;55.328;86.106;2023-04-01T12:26:10;10.70;;;3.65;;
78799;SDS011;68148;55.328;86.106;2023-04-01T12:28:58;21.02;;;3.90;;
78799;SDS011;68148;55.328;86.106;2023-04-01T12:40:20;15.23;;;3.97;;
78799;SDS011;68148;55.328;86.106;2023-04-01T12:45:57;14.88;;;4.60;;
78799;SDS011;68148;55.328;86.106;2023-04-01T13:16:45;0.30;;;0.30;;
78799;SDS011;68148;55.328;86.106;2023-04-01T13:19:29;11.60;;;5.03;;
78799;SDS011;68148;55.328;86.106;2023-04-01T13:27:49;4.30;;;3.80;;
78799;SDS011;68148;55.328;86.106;2023-04-01T13:44:12;12.88;;;5.47;;
78799;SDS011;68148;55.328;86.106;2023-04-01T13:55:19;23.33;;;7.70;;
78799;SDS011;68148;55.328;86.106;2023-04-01T14:01:00;35.85;;;9.75;;
78799;SDS011;68148;55.328;86.106;2023-04-01T14:03:32;37.92;;;9.05;;
78799;SDS011;68148;55.328;86.106;2023-04-01T14:11:56;25.60;;;8.57;;
78799;SDS011;68148;55.328;86.106;2023-04-01T14:14:47;45.08;;;11.65;;
78799;SDS011;68148;55.328;86.106;2023-04-01T14:37:08;71.28;;;21.45;;
78799;SDS011;68148;55.328;86.106;2023-04-01T14:42:59;47.22;;;15.07;;
78799;SDS011;68148;55.328;86.106;2023-04-01T14:45:58;63.83;;;18.00;;
78799;SDS011;68148;55.328;86.106;2023-04-01T14:48:52;79.82;;;20.17;;
78799;SDS011;68148;55.328;86.106;2023-04-01T14:51:36;55.45;;;20.00;;
78799;SDS011;68148;55.328;86.106;2023-04-01T14:59:13;84.40;;;27.90;;
78799;SDS011;68148;55.328;86.106;2023-04-01T15:13:41;23.98;;;6.05;;
78799;SDS011;68148;55.328;86.106;2023-04-01T15:19:50;29.38;;;9.13;;
78799;SDS011;68148;55.328;86.106;2023-04-01T15:22:42;25.17;;;8.77;;
78799;SDS011;68148;55.328;86.106;2023-04-01T15:25:35;30.90;;;10.05;;
78799;SDS011;68148;55.328;86.106;2023-04-01T15:31:08;25.65;;;10.00;;
78799;SDS011;68148;55.328;86.106;2023-04-01T15:33:53;25.55;;;7.40;;
78799;SDS011;68148;55.328;86.106;2023-04-01T15:36:55;12.98;;;4.43;;
78799;SDS011;68148;55.328;86.106;2023-04-01T15:42:24;8.02;;;3.55;;
78799;SDS011;68148;55.328;86.106;2023-04-01T15:47:39;35.90;;;7.28;;
78799;SDS011;68148;55.328;86.106;2023-04-01T15:56:09;30.77;;;5.15;;
78799;SDS011;68148;55.328;86.106;2023-04-01T16:09:59;24.98;;;5.78;;
78799;SDS011;68148;55.328;86.106;2023-04-01T16:12:53;24.15;;;3.47;;
78799;SDS011;68148;55.328;86.106;2023-04-01T16:21:01;11.63;;;3.25;;
78799;SDS011;68148;55.328;86.106;2023-04-01T16:23:49;4.45;;;1.10;;
78799;SDS011;68148;55.328;86.106;2023-04-01T16:26:34;16.10;;;3.90;;
78799;SDS011;68148;55.328;86.106;2023-04-01T16:29:10;15.40;;;3.15;;
78799;SDS011;68148;55.328;86.106;2023-04-01T16:31:55;26.60;;;6.40;;
78799;SDS011;68148;55.328;86.106;2023-04-01T16:37:34;3.67;;;1.70;;
78799;SDS011;68148;55.328;86.106;2023-04-01T16:42:40;66.90;;;13.80;;
78799;SDS011;68148;55.328;86.106;2023-04-01T16:45:35;25.02;;;8.70;;
78799;SDS011;68148;55.328;86.106;2023-04-01T16:48:15;42.55;;;10.98;;
78799;SDS011;68148;55.328;86.106;2023-04-01T16:53:36;53.85;;;14.45;;
78799;SDS011;68148;55.328;86.106;2023-04-01T16:56:10;33.10;;;12.27;;
78799;SDS011;68148;55.328;86.106;2023-04-01T16:58:39;67.82;;;14.55;;
78799;SDS011;68148;55.328;86.106;2023-04-01T17:01:16;77.00;;;19.75;;
78799;SDS011;68148;55.328;86.106;2023-04-01T17:03:47;111.85;;;16.45;;
78799;SDS011;68148;55.328;86.106;2023-04-01T17:06:43;67.40;;;20.35;;
78799;SDS011;68148;55.328;86.106;2023-04-01T17:12:24;81.05;;;20.92;;
78799;SDS011;68148;55.328;86.106;2023-04-01T17:15:32;63.47;;;18.70;;
78799;SDS011;68148;55.328;86.106;2023-04-01T17:21:14;82.43;;;14.98;;
78799;SDS011;68148;55.328;86.106;2023-04-01T17:27:59;82.80;;;15.02;;
78799;SDS011;68148;55.328;86.106;2023-04-01T17:30:13;37.13;;;13.00;;
78799;SDS011;68148;55.328;86.106;2023-04-01T17:35:39;58.33;;;16.90;;
78799;SDS011;68148;55.328;86.106;2023-04-01T17:38:33;40.40;;;14.10;;
78799;SDS011;68148;55.328;86.106;2023-04-01T17:41:29;50.60;;;12.57;;
78799;SDS011;68148;55.328;86.106;2023-04-01T17:59:49;30.52;;;11.40;;
78799;SDS011;68148;55.328;86.106;2023-04-01T18:13:40;41.22;;;11.57;;
78799;SDS011;68148;55.328;86.106;2023-04-01T18:19:43;51.03;;;10.23;;
78799;SDS011;68148;55.328;86.106;2023-04-01T18:25:45;35.15;;;9.45;;
78799;SDS011;68148;55.328;86.106;2023-04-01T18:31:18;55.40;;;14.85;;
78799;SDS011;68148;55.328;86.106;2023-04-01T18:40:42;38.42;;;10.07;;
78799;SDS011;68148;55.328;86.106;2023-04-01T18:52:25;21.27;;;11.00;;
78799;SDS011;68148;55.328;86.106;2023-04-01T19:00:21;34.55;;;10.90;;
78799;SDS011;68148;55.328;86.106;2023-04-01T19:05:48;18.23;;;8.85;;
78799;SDS011;68148;55.328;86.106;2023-04-01T19:08:39;20.17;;;9.60;;
78799;SDS011;68148;55.328;86.106;2023-04-01T19:11:10;43.13;;;18.65;;
78799;SDS011;68148;55.328;86.106;2023-04-01T19:19:34;31.88;;;12.32;;
78799;SDS011;68148;55.328;86.106;2023-04-01T19:22:21;24.10;;;9.65;;
78799;SDS011;68148;55.328;86.106;2023-04-01T19:30:36;87.20;;;30.42;;
78799;SDS011;68148;55.328;86.106;2023-04-01T19:35:55;74.38;;;27.98;;
78799;SDS011;68148;55.328;86.106;2023-04-01T19:38:38;61.47;;;23.38;;
78799;SDS011;68148;55.328;86.106;2023-04-01T19:41:26;9.40;;;6.13;;
78799;SDS011;68148;55.328;86.106;2023-04-01T19:47:48;35.50;;;14.93;;
78799;SDS011;68148;55.328;86.106;2023-04-01T20:01:22;16.77;;;6.53;;
78799;SDS011;68148;55.328;86.106;2023-04-01T20:03:57;19.85;;;6.72;;
78799;SDS011;68148;55.328;86.106;2023-04-01T20:06:39;18.23;;;6.82;;
78799;SDS011;68148;55.328;86.106;2023-04-01T20:09:35;17.15;;;7.00;;
78799;SDS011;68148;55.328;86.106;2023-04-01T20:15:45;13.60;;;8.13;;
78799;SDS011;68148;55.328;86.106;2023-04-01T20:19:11;5.05;;;4.55;;
78799;SDS011;68148;55.328;86.106;2023-04-01T20:23:59;36.30;;;10.43;;
78799;SDS011;68148;55.328;86.106;2023-04-01T20:26:46;14.02;;;5.72;;
78799;SDS011;68148;55.328;86.106;2023-04-01T20:38:03;15.85;;;6.78;;
78799;SDS011;68148;55.328;86.106;2023-04-01T20:40:42;34.67;;;11.85;;
78799;SDS011;68148;55.328;86.106;2023-04-01T20:43:33;20.02;;;10.68;;
78799;SDS011;68148;55.328;86.106;2023-04-01T20:46:20;41.53;;;12.95;;
78799;SDS011;68148;55.328;86.106;2023-04-01T20:51:53;40.88;;;7.55;;
78799;SDS011;68148;55.328;86.106;2023-04-01T21:00:19;38.05;;;10.00;;
78799;SDS011;68148;55.328;86.106;2023-04-01T21:09:55;34.38;;;9.85;;
78799;SDS011;68148;55.328;86.106;2023-04-01T21:18:09;11.65;;;5.75;;
78799;SDS011;68148;55.328;86.106;2023-04-01T21:23:42;16.20;;;5.97;;
78799;SDS011;68148;55.328;86.106;2023-04-01T21:26:29;9.70;;;5.65;;
78799;SDS011;68148;55.328;86.106;2023-04-01T21:32:05;14.75;;;5.53;;
78799;SDS011;68148;55.328;86.106;2023-04-01T21:37:58;11.75;;;5.50;;
78799;SDS011;68148;55.328;86.106;2023-04-01T21:46:54;8.85;;;4.63;;
78799;SDS011;68148;55.328;86.106;2023-04-01T21:55:24;10.18;;;2.67;;
78799;SDS011;68148;55.328;86.106;2023-04-01T22:06:18;4.53;;;2.83;;
78799;SDS011;68148;55.328;86.106;2023-04-01T22:14:37;3.75;;;2.20;;
78799;SDS011;68148;55.328;86.106;2023-04-01T22:17:21;13.48;;;5.35;;
78799;SDS011;68148;55.328;86.106;2023-04-01T22:19:56;6.63;;;3.95;;
78799;SDS011;68148;55.328;86.106;2023-04-01T22:26:25;10.10;;;5.63;;
78799;SDS011;68148;55.328;86.106;2023-04-01T22:28:42;25.60;;;4.63;;
78799;SDS011;68148;55.328;86.106;2023-04-01T22:31:31;2.97;;;2.22;;
78799;SDS011;68148;55.328;86.106;2023-04-01T22:34:14;12.18;;;5.38;;
78799;SDS011;68148;55.328;86.106;2023-04-01T22:37:06;57.90;;;6.57;;
78799;SDS011;68148;55.328;86.106;2023-04-01T22:39:55;18.10;;;3.65;;
78799;SDS011;68148;55.328;86.106;2023-04-01T22:42:43;7.72;;;4.93;;
78799;SDS011;68148;55.328;86.106;2023-04-01T22:48:07;23.10;;;7.13;;
78799;SDS011;68148;55.328;86.106;2023-04-01T22:50:53;8.75;;;4.82;;
78799;SDS011;68148;55.328;86.106;2023-04-01T22:53:32;12.13;;;4.53;;
78799;SDS011;68148;55.328;86.106;2023-04-01T22:56:17;7.05;;;3.20;;
78799;SDS011;68148;55.328;86.106;2023-04-01T22:58:49;17.77;;;6.47;;
78799;SDS011;68148;55.328;86.106;2023-04-01T23:01:24;8.82;;;4.00;;
78799;SDS011;68148;55.328;86.106;2023-04-01T23:03:55;6.40;;;3.33;;
78799;SDS011;68148;55.328;86.106;2023-04-01T23:06:26;6.35;;;2.72;;
78799;SDS011;68148;55.328;86.106;2023-04-01T23:09:01;8.27;;;3.45;;
78799;SDS011;68148;55.328;86.106;2023-04-01T23:28:15;1.77;;;1.30;;
78799;SDS011;68148;55.328;86.106;2023-04-01T23:35:48;1.70;;;1.58;;
78799;SDS011;68148;55.328;86.106;2023-04-01T23:38:19;4.55;;;1.33;;
78799;SDS011;68148;55.328;86.106;2023-04-01T23:40:48;8.20;;;2.03;;
78799;SDS011;68148;55.328;86.106;2023-04-01T23:43:22;18.63;;;4.72;;
78799;SDS011;68148;55.328;86.106;2023-04-01T23:45:56;1.77;;;1.60;;
78799;SDS011;68148;55.328;86.106;2023-04-01T23:48:27;7.57;;;3.35;;
78799;SDS011;68148;55.328;86.106;2023-04-01T23:50:57;6.55;;;3.05;;
78799;SDS011;68148;55.328;86.106;2023-04-01T23:53:25;12.95;;;4.25;;
78799;SDS011;68148;55.328;86.106;2023-04-01T23:55:54;11.00;;;4.55;;
78799;SDS011;68148;55.328;86.106;2023-04-01T23:58:53;20.10;;;5.05;;
